sensor_id;sensor_type;location;lat;lon;timestamp;P1;durP1;ratioP1;P2;durP2;ratioP2
7045;SDS011;3564;53.326;10.356;2022-12-20T00:01:08;10.43;;;8.23;;
7045;SDS011;3564;53.326;10.356;2022-12-20T00:03:35;12.97;;;8.57;;
7045;SDS011;3564;53.326;10.356;2022-12-20T00:06:01;11.60;;;7.87;;
7045;SDS011;3564;53.326;10.356;2022-12-20T00:08:27;11.13;;;8.10;;
7045;SDS011;3564;53.326;10.356;2022-12-20T00:10:52;12.67;;;7.83;;
7045;SDS011;3564;53.326;10.356;2022-12-20T00:13:18;9.57;;;7.10;;
7045;SDS011;3564;53.326;10.356;2022-12-20T00:15:43;10.83;;;7.47;;
7045;SDS011;3564;53.326;10.356;2022-12-20T00:18:09;13.43;;;8.33;;
7045;SDS011;3564;53.326;10.356;2022-12-20T00:20:35;12.03;;;8.07;;
7045;SDS011;3564;53.326;10.356;2022-12-20T00:23:00;11.07;;;7.70;;
7045;SDS011;3564;53.326;10.356;2022-12-20T00:25:26;10.60;;;8.40;;
7045;SDS011;3564;53.326;10.356;2022-12-20T00:27:52;11.67;;;8.03;;
7045;SDS011;3564;53.326;10.356;2022-12-20T00:30:18;10.70;;;8.57;;
7045;SDS011;3564;53.326;10.356;2022-12-20T00:32:44;9.60;;;7.47;;
7045;SDS011;3564;53.326;10.356;2022-12-20T00:35:09;10.00;;;7.57;;
7045;SDS011;3564;53.326;10.356;2022-12-20T00:37:35;11.70;;;8.00;;
7045;SDS011;3564;53.326;10.356;2022-12-20T00:40:02;11.63;;;7.23;;
7045;SDS011;3564;53.326;10.356;2022-12-20T00:42:28;9.97;;;7.07;;
7045;SDS011;3564;53.326;10.356;2022-12-20T00:44:53;11.67;;;7.80;;
7045;SDS011;3564;53.326;10.356;2022-12-20T00:47:19;11.23;;;7.83;;
7045;SDS011;3564;53.326;10.356;2022-12-20T00:49:45;11.30;;;7.33;;
7045;SDS011;3564;53.326;10.356;2022-12-20T00:52:10;9.30;;;7.73;;
7045;SDS011;3564;53.326;10.356;2022-12-20T00:54:36;11.63;;;7.53;;
7045;SDS011;3564;53.326;10.356;2022-12-20T00:57:01;9.83;;;7.33;;
7045;SDS011;3564;53.326;10.356;2022-12-20T00:59:27;12.33;;;8.03;;
7045;SDS011;3564;53.326;10.356;2022-12-20T01:01:52;11.13;;;8.47;;
7045;SDS011;3564;53.326;10.356;2022-12-20T01:04:18;10.57;;;7.70;;
7045;SDS011;3564;53.326;10.356;2022-12-20T01:06:44;12.40;;;7.63;;
7045;SDS011;3564;53.326;10.356;2022-12-20T01:09:10;10.60;;;7.53;;
7045;SDS011;3564;53.326;10.356;2022-12-20T01:11:36;10.73;;;6.90;;
7045;SDS011;3564;53.326;10.356;2022-12-20T01:14:04;10.33;;;7.40;;
7045;SDS011;3564;53.326;10.356;2022-12-20T01:16:42;11.30;;;7.17;;
7045;SDS011;3564;53.326;10.356;2022-12-20T01:19:09;12.37;;;7.43;;
7045;SDS011;3564;53.326;10.356;2022-12-20T01:21:36;11.83;;;8.03;;
7045;SDS011;3564;53.326;10.356;2022-12-20T01:24:08;25.07;;;15.80;;
7045;SDS011;3564;53.326;10.356;2022-12-20T01:26:40;26.13;;;17.43;;
7045;SDS011;3564;53.326;10.356;2022-12-20T01:29:06;11.83;;;9.17;;
7045;SDS011;3564;53.326;10.356;2022-12-20T01:31:32;10.70;;;7.63;;
7045;SDS011;3564;53.326;10.356;2022-12-20T01:33:58;9.73;;;7.30;;
7045;SDS011;3564;53.326;10.356;2022-12-20T01:36:25;9.77;;;6.83;;
7045;SDS011;3564;53.326;10.356;2022-12-20T01:39:12;10.67;;;7.70;;
7045;SDS011;3564;53.326;10.356;2022-12-20T01:41:40;12.30;;;7.80;;
7045;SDS011;3564;53.326;10.356;2022-12-20T01:46:42;11.10;;;7.43;;
7045;SDS011;3564;53.326;10.356;2022-12-20T01:49:16;13.67;;;8.30;;
7045;SDS011;3564;53.326;10.356;2022-12-20T01:51:50;10.30;;;7.70;;
7045;SDS011;3564;53.326;10.356;2022-12-20T01:54:21;11.03;;;7.00;;
7045;SDS011;3564;53.326;10.356;2022-12-20T01:56:51;10.93;;;7.53;;
7045;SDS011;3564;53.326;10.356;2022-12-20T01:59:27;11.63;;;7.93;;
7045;SDS011;3564;53.326;10.356;2022-12-20T02:01:57;10.60;;;7.30;;
7045;SDS011;3564;53.326;10.356;2022-12-20T02:04:24;8.97;;;7.40;;
7045;SDS011;3564;53.326;10.356;2022-12-20T02:06:49;11.03;;;7.20;;
7045;SDS011;3564;53.326;10.356;2022-12-20T02:09:15;12.90;;;8.30;;
7045;SDS011;3564;53.326;10.356;2022-12-20T02:22:44;10.60;;;7.13;;
7045;SDS011;3564;53.326;10.356;2022-12-20T02:31:37;12.10;;;7.47;;
7045;SDS011;3564;53.326;10.356;2022-12-20T02:34:06;11.17;;;7.50;;
7045;SDS011;3564;53.326;10.356;2022-12-20T02:36:34;9.70;;;6.80;;
7045;SDS011;3564;53.326;10.356;2022-12-20T02:39:00;11.37;;;7.87;;
7045;SDS011;3564;53.326;10.356;2022-12-20T02:41:27;9.53;;;7.03;;
7045;SDS011;3564;53.326;10.356;2022-12-20T02:44:00;9.40;;;7.33;;
7045;SDS011;3564;53.326;10.356;2022-12-20T02:46:47;12.83;;;7.53;;
7045;SDS011;3564;53.326;10.356;2022-12-20T02:49:15;8.77;;;7.07;;
7045;SDS011;3564;53.326;10.356;2022-12-20T02:51:45;10.43;;;8.07;;
7045;SDS011;3564;53.326;10.356;2022-12-20T02:54:13;11.83;;;7.60;;
7045;SDS011;3564;53.326;10.356;2022-12-20T03:01:53;8.60;;;7.13;;
7045;SDS011;3564;53.326;10.356;2022-12-20T03:04:23;9.93;;;6.93;;
7045;SDS011;3564;53.326;10.356;2022-12-20T03:09:23;12.23;;;8.50;;
7045;SDS011;3564;53.326;10.356;2022-12-20T03:11:49;12.30;;;8.07;;
7045;SDS011;3564;53.326;10.356;2022-12-20T03:14:15;13.43;;;8.40;;
7045;SDS011;3564;53.326;10.356;2022-12-20T03:16:41;13.10;;;8.47;;
7045;SDS011;3564;53.326;10.356;2022-12-20T03:19:06;10.20;;;7.37;;
7045;SDS011;3564;53.326;10.356;2022-12-20T03:21:32;11.67;;;7.50;;
7045;SDS011;3564;53.326;10.356;2022-12-20T03:23:57;12.00;;;7.60;;
7045;SDS011;3564;53.326;10.356;2022-12-20T03:26:26;10.53;;;8.03;;
7045;SDS011;3564;53.326;10.356;2022-12-20T03:28:51;12.20;;;8.17;;
7045;SDS011;3564;53.326;10.356;2022-12-20T03:31:17;13.40;;;8.13;;
7045;SDS011;3564;53.326;10.356;2022-12-20T03:33:43;13.17;;;8.37;;
7045;SDS011;3564;53.326;10.356;2022-12-20T03:36:08;10.60;;;7.87;;
7045;SDS011;3564;53.326;10.356;2022-12-20T03:38:34;12.07;;;7.93;;
7045;SDS011;3564;53.326;10.356;2022-12-20T03:40:59;12.43;;;8.70;;
7045;SDS011;3564;53.326;10.356;2022-12-20T03:43:25;11.20;;;8.00;;
7045;SDS011;3564;53.326;10.356;2022-12-20T03:45:50;11.50;;;7.97;;
7045;SDS011;3564;53.326;10.356;2022-12-20T03:48:16;12.17;;;8.20;;
7045;SDS011;3564;53.326;10.356;2022-12-20T03:50:42;12.73;;;7.90;;
7045;SDS011;3564;53.326;10.356;2022-12-20T03:53:07;9.73;;;7.00;;
7045;SDS011;3564;53.326;10.356;2022-12-20T03:55:33;11.40;;;7.77;;
7045;SDS011;3564;53.326;10.356;2022-12-20T03:57:58;12.47;;;8.50;;
7045;SDS011;3564;53.326;10.356;2022-12-20T04:00:24;11.73;;;8.50;;
7045;SDS011;3564;53.326;10.356;2022-12-20T04:02:50;13.50;;;8.47;;
7045;SDS011;3564;53.326;10.356;2022-12-20T04:05:16;11.63;;;8.23;;
7045;SDS011;3564;53.326;10.356;2022-12-20T04:07:41;10.80;;;7.80;;
7045;SDS011;3564;53.326;10.356;2022-12-20T04:10:09;11.63;;;8.10;;
7045;SDS011;3564;53.326;10.356;2022-12-20T04:12:35;12.87;;;7.93;;
7045;SDS011;3564;53.326;10.356;2022-12-20T04:15:01;12.07;;;8.37;;
7045;SDS011;3564;53.326;10.356;2022-12-20T04:17:27;12.43;;;8.43;;
7045;SDS011;3564;53.326;10.356;2022-12-20T04:19:53;14.57;;;8.80;;
7045;SDS011;3564;53.326;10.356;2022-12-20T04:22:18;11.43;;;8.20;;
7045;SDS011;3564;53.326;10.356;2022-12-20T04:24:44;14.40;;;7.63;;
7045;SDS011;3564;53.326;10.356;2022-12-20T04:27:09;11.40;;;8.10;;
7045;SDS011;3564;53.326;10.356;2022-12-20T04:29:35;11.60;;;7.57;;
7045;SDS011;3564;53.326;10.356;2022-12-20T04:32:00;12.50;;;8.50;;
7045;SDS011;3564;53.326;10.356;2022-12-20T04:34:26;10.13;;;7.43;;
7045;SDS011;3564;53.326;10.356;2022-12-20T04:36:52;11.03;;;8.10;;
7045;SDS011;3564;53.326;10.356;2022-12-20T04:39:17;10.77;;;7.90;;
7045;SDS011;3564;53.326;10.356;2022-12-20T04:41:43;12.17;;;8.10;;
7045;SDS011;3564;53.326;10.356;2022-12-20T04:44:09;11.53;;;7.73;;
7045;SDS011;3564;53.326;10.356;2022-12-20T04:46:34;12.47;;;7.83;;
7045;SDS011;3564;53.326;10.356;2022-12-20T04:49:00;11.40;;;7.70;;
7045;SDS011;3564;53.326;10.356;2022-12-20T04:51:26;12.17;;;7.40;;
7045;SDS011;3564;53.326;10.356;2022-12-20T04:53:51;11.17;;;7.07;;
7045;SDS011;3564;53.326;10.356;2022-12-20T04:56:18;9.23;;;7.47;;
7045;SDS011;3564;53.326;10.356;2022-12-20T04:58:50;11.97;;;7.73;;
7045;SDS011;3564;53.326;10.356;2022-12-20T05:01:17;10.67;;;7.77;;
7045;SDS011;3564;53.326;10.356;2022-12-20T05:03:43;10.77;;;7.60;;
7045;SDS011;3564;53.326;10.356;2022-12-20T05:06:09;11.57;;;7.27;;
7045;SDS011;3564;53.326;10.356;2022-12-20T05:08:36;10.20;;;6.97;;
7045;SDS011;3564;53.326;10.356;2022-12-20T05:11:02;10.60;;;7.50;;
7045;SDS011;3564;53.326;10.356;2022-12-20T05:13:28;9.07;;;7.53;;
7045;SDS011;3564;53.326;10.356;2022-12-20T05:15:54;11.17;;;8.27;;
7045;SDS011;3564;53.326;10.356;2022-12-20T05:18:21;10.57;;;7.33;;
7045;SDS011;3564;53.326;10.356;2022-12-20T05:20:47;12.30;;;8.50;;
7045;SDS011;3564;53.326;10.356;2022-12-20T05:23:13;11.93;;;7.80;;
7045;SDS011;3564;53.326;10.356;2022-12-20T05:25:57;12.07;;;7.50;;
7045;SDS011;3564;53.326;10.356;2022-12-20T05:28:41;9.90;;;8.03;;
7045;SDS011;3564;53.326;10.356;2022-12-20T05:31:07;9.00;;;7.07;;
7045;SDS011;3564;53.326;10.356;2022-12-20T05:33:32;12.30;;;7.30;;
7045;SDS011;3564;53.326;10.356;2022-12-20T05:35:58;12.10;;;8.33;;
7045;SDS011;3564;53.326;10.356;2022-12-20T05:38:23;9.57;;;7.50;;
7045;SDS011;3564;53.326;10.356;2022-12-20T05:40:49;10.13;;;7.80;;
7045;SDS011;3564;53.326;10.356;2022-12-20T05:43:16;11.80;;;8.30;;
7045;SDS011;3564;53.326;10.356;2022-12-20T05:45:50;14.43;;;8.30;;
7045;SDS011;3564;53.326;10.356;2022-12-20T05:48:17;12.03;;;7.83;;
7045;SDS011;3564;53.326;10.356;2022-12-20T05:50:44;11.03;;;7.77;;
7045;SDS011;3564;53.326;10.356;2022-12-20T05:53:10;11.77;;;8.40;;
7045;SDS011;3564;53.326;10.356;2022-12-20T05:55:37;11.13;;;7.90;;
7045;SDS011;3564;53.326;10.356;2022-12-20T05:58:04;11.40;;;7.83;;
7045;SDS011;3564;53.326;10.356;2022-12-20T06:00:30;9.10;;;7.90;;
7045;SDS011;3564;53.326;10.356;2022-12-20T06:02:56;9.73;;;8.23;;
7045;SDS011;3564;53.326;10.356;2022-12-20T06:05:21;11.37;;;8.47;;
7045;SDS011;3564;53.326;10.356;2022-12-20T06:07:47;12.00;;;8.23;;
7045;SDS011;3564;53.326;10.356;2022-12-20T06:10:13;12.50;;;8.57;;
7045;SDS011;3564;53.326;10.356;2022-12-20T06:12:38;14.00;;;8.63;;
7045;SDS011;3564;53.326;10.356;2022-12-20T06:15:04;12.27;;;8.33;;
7045;SDS011;3564;53.326;10.356;2022-12-20T06:17:30;12.27;;;8.03;;
7045;SDS011;3564;53.326;10.356;2022-12-20T06:19:55;10.93;;;8.07;;
7045;SDS011;3564;53.326;10.356;2022-12-20T06:22:21;12.00;;;8.43;;
7045;SDS011;3564;53.326;10.356;2022-12-20T06:24:47;13.87;;;8.83;;
7045;SDS011;3564;53.326;10.356;2022-12-20T06:27:12;12.07;;;8.57;;
7045;SDS011;3564;53.326;10.356;2022-12-20T06:29:38;10.83;;;7.90;;
7045;SDS011;3564;53.326;10.356;2022-12-20T06:32:03;11.00;;;8.47;;
7045;SDS011;3564;53.326;10.356;2022-12-20T06:34:29;11.57;;;8.43;;
7045;SDS011;3564;53.326;10.356;2022-12-20T06:36:55;13.43;;;9.23;;
7045;SDS011;3564;53.326;10.356;2022-12-20T06:39:21;13.57;;;8.97;;
7045;SDS011;3564;53.326;10.356;2022-12-20T06:41:47;12.67;;;8.47;;
7045;SDS011;3564;53.326;10.356;2022-12-20T06:44:12;14.20;;;8.93;;
7045;SDS011;3564;53.326;10.356;2022-12-20T06:46:38;10.23;;;7.93;;
7045;SDS011;3564;53.326;10.356;2022-12-20T06:49:03;10.73;;;8.03;;
7045;SDS011;3564;53.326;10.356;2022-12-20T06:51:29;11.63;;;8.20;;
7045;SDS011;3564;53.326;10.356;2022-12-20T06:53:54;12.47;;;8.80;;
7045;SDS011;3564;53.326;10.356;2022-12-20T06:56:20;12.63;;;8.50;;
7045;SDS011;3564;53.326;10.356;2022-12-20T06:58:45;13.23;;;8.40;;
7045;SDS011;3564;53.326;10.356;2022-12-20T07:01:11;13.47;;;9.07;;
7045;SDS011;3564;53.326;10.356;2022-12-20T07:03:37;14.27;;;8.17;;
7045;SDS011;3564;53.326;10.356;2022-12-20T07:06:02;12.13;;;8.27;;
7045;SDS011;3564;53.326;10.356;2022-12-20T07:08:28;12.83;;;9.27;;
7045;SDS011;3564;53.326;10.356;2022-12-20T07:10:53;14.00;;;9.10;;
7045;SDS011;3564;53.326;10.356;2022-12-20T07:13:20;11.87;;;9.07;;
7045;SDS011;3564;53.326;10.356;2022-12-20T07:15:46;12.50;;;8.87;;
7045;SDS011;3564;53.326;10.356;2022-12-20T07:18:12;11.70;;;8.60;;
7045;SDS011;3564;53.326;10.356;2022-12-20T07:20:38;11.80;;;8.43;;
7045;SDS011;3564;53.326;10.356;2022-12-20T07:23:04;10.83;;;8.43;;
7045;SDS011;3564;53.326;10.356;2022-12-20T07:25:31;13.30;;;9.30;;
7045;SDS011;3564;53.326;10.356;2022-12-20T07:27:56;13.03;;;8.77;;
7045;SDS011;3564;53.326;10.356;2022-12-20T07:30:22;11.43;;;8.03;;
7045;SDS011;3564;53.326;10.356;2022-12-20T07:32:48;15.13;;;8.53;;
7045;SDS011;3564;53.326;10.356;2022-12-20T07:35:13;12.37;;;9.53;;
7045;SDS011;3564;53.326;10.356;2022-12-20T07:37:39;12.87;;;8.83;;
7045;SDS011;3564;53.326;10.356;2022-12-20T07:40:05;13.30;;;9.33;;
7045;SDS011;3564;53.326;10.356;2022-12-20T07:42:33;11.83;;;9.10;;
7045;SDS011;3564;53.326;10.356;2022-12-20T07:44:59;12.13;;;9.33;;
7045;SDS011;3564;53.326;10.356;2022-12-20T07:47:24;10.93;;;8.53;;
7045;SDS011;3564;53.326;10.356;2022-12-20T07:49:50;11.17;;;8.83;;
7045;SDS011;3564;53.326;10.356;2022-12-20T07:52:16;12.50;;;8.53;;
7045;SDS011;3564;53.326;10.356;2022-12-20T07:54:47;11.33;;;8.77;;
7045;SDS011;3564;53.326;10.356;2022-12-20T07:57:20;11.17;;;9.23;;
7045;SDS011;3564;53.326;10.356;2022-12-20T07:59:50;12.90;;;8.93;;
7045;SDS011;3564;53.326;10.356;2022-12-20T08:02:21;15.37;;;8.37;;
7045;SDS011;3564;53.326;10.356;2022-12-20T08:04:53;12.50;;;8.70;;
7045;SDS011;3564;53.326;10.356;2022-12-20T08:07:20;10.20;;;7.87;;
7045;SDS011;3564;53.326;10.356;2022-12-20T08:09:46;9.77;;;7.90;;
7045;SDS011;3564;53.326;10.356;2022-12-20T08:12:12;11.97;;;8.60;;
7045;SDS011;3564;53.326;10.356;2022-12-20T08:14:40;12.93;;;9.10;;
7045;SDS011;3564;53.326;10.356;2022-12-20T08:17:06;12.13;;;8.17;;
7045;SDS011;3564;53.326;10.356;2022-12-20T08:19:35;11.43;;;8.40;;
7045;SDS011;3564;53.326;10.356;2022-12-20T08:22:00;10.33;;;7.60;;
7045;SDS011;3564;53.326;10.356;2022-12-20T08:24:26;9.47;;;7.73;;
7045;SDS011;3564;53.326;10.356;2022-12-20T08:26:52;15.47;;;8.90;;
7045;SDS011;3564;53.326;10.356;2022-12-20T08:29:17;11.33;;;7.93;;
7045;SDS011;3564;53.326;10.356;2022-12-20T08:31:43;11.50;;;8.80;;
7045;SDS011;3564;53.326;10.356;2022-12-20T08:34:08;10.60;;;8.13;;
7045;SDS011;3564;53.326;10.356;2022-12-20T08:36:34;11.53;;;7.93;;
7045;SDS011;3564;53.326;10.356;2022-12-20T08:39:04;10.57;;;8.87;;
7045;SDS011;3564;53.326;10.356;2022-12-20T08:41:30;12.13;;;7.83;;
7045;SDS011;3564;53.326;10.356;2022-12-20T08:43:57;12.40;;;8.40;;
7045;SDS011;3564;53.326;10.356;2022-12-20T08:46:23;12.17;;;8.10;;
7045;SDS011;3564;53.326;10.356;2022-12-20T08:48:49;12.13;;;8.23;;
7045;SDS011;3564;53.326;10.356;2022-12-20T08:51:15;13.67;;;7.83;;
7045;SDS011;3564;53.326;10.356;2022-12-20T08:53:41;10.57;;;8.43;;
7045;SDS011;3564;53.326;10.356;2022-12-20T08:58:32;11.03;;;7.80;;
7045;SDS011;3564;53.326;10.356;2022-12-20T09:00:59;10.60;;;8.00;;
7045;SDS011;3564;53.326;10.356;2022-12-20T09:03:26;10.40;;;7.50;;
7045;SDS011;3564;53.326;10.356;2022-12-20T09:05:55;9.77;;;7.43;;
7045;SDS011;3564;53.326;10.356;2022-12-20T09:08:21;11.30;;;7.37;;
7045;SDS011;3564;53.326;10.356;2022-12-20T09:10:47;10.10;;;7.17;;
7045;SDS011;3564;53.326;10.356;2022-12-20T09:13:13;9.07;;;7.40;;
7045;SDS011;3564;53.326;10.356;2022-12-20T09:15:39;11.67;;;7.57;;
7045;SDS011;3564;53.326;10.356;2022-12-20T09:18:06;10.63;;;7.27;;
7045;SDS011;3564;53.326;10.356;2022-12-20T09:20:31;11.60;;;7.37;;
7045;SDS011;3564;53.326;10.356;2022-12-20T09:22:57;10.97;;;6.93;;
7045;SDS011;3564;53.326;10.356;2022-12-20T09:25:24;11.03;;;7.30;;
7045;SDS011;3564;53.326;10.356;2022-12-20T09:27:51;9.03;;;6.87;;
7045;SDS011;3564;53.326;10.356;2022-12-20T09:30:19;9.50;;;7.37;;
7045;SDS011;3564;53.326;10.356;2022-12-20T09:32:44;11.77;;;7.83;;
7045;SDS011;3564;53.326;10.356;2022-12-20T09:35:10;9.67;;;6.67;;
7045;SDS011;3564;53.326;10.356;2022-12-20T09:37:35;10.77;;;7.10;;
7045;SDS011;3564;53.326;10.356;2022-12-20T09:40:01;9.57;;;6.70;;
7045;SDS011;3564;53.326;10.356;2022-12-20T09:42:28;10.63;;;7.10;;
7045;SDS011;3564;53.326;10.356;2022-12-20T09:44:57;8.73;;;7.17;;
7045;SDS011;3564;53.326;10.356;2022-12-20T09:47:29;9.47;;;6.03;;
7045;SDS011;3564;53.326;10.356;2022-12-20T09:49:58;11.27;;;6.80;;
7045;SDS011;3564;53.326;10.356;2022-12-20T09:52:28;9.13;;;6.77;;
7045;SDS011;3564;53.326;10.356;2022-12-20T10:00:48;9.87;;;6.37;;
7045;SDS011;3564;53.326;10.356;2022-12-20T10:03:18;8.77;;;6.23;;
7045;SDS011;3564;53.326;10.356;2022-12-20T10:05:57;7.67;;;6.00;;
7045;SDS011;3564;53.326;10.356;2022-12-20T10:08:37;7.27;;;6.07;;
7045;SDS011;3564;53.326;10.356;2022-12-20T10:11:31;8.57;;;6.50;;
7045;SDS011;3564;53.326;10.356;2022-12-20T10:16:57;8.33;;;5.63;;
7045;SDS011;3564;53.326;10.356;2022-12-20T10:22:38;6.67;;;5.03;;
7045;SDS011;3564;53.326;10.356;2022-12-20T10:25:28;6.90;;;5.67;;
7045;SDS011;3564;53.326;10.356;2022-12-20T10:27:56;7.63;;;5.87;;
7045;SDS011;3564;53.326;10.356;2022-12-20T10:30:27;7.63;;;5.37;;
7045;SDS011;3564;53.326;10.356;2022-12-20T10:32:54;7.83;;;5.83;;
7045;SDS011;3564;53.326;10.356;2022-12-20T10:38:04;7.93;;;6.53;;
7045;SDS011;3564;53.326;10.356;2022-12-20T10:40:33;6.53;;;5.23;;
7045;SDS011;3564;53.326;10.356;2022-12-20T10:43:04;10.17;;;5.90;;
7045;SDS011;3564;53.326;10.356;2022-12-20T10:45:37;7.97;;;5.60;;
7045;SDS011;3564;53.326;10.356;2022-12-20T10:48:21;7.70;;;5.40;;
7045;SDS011;3564;53.326;10.356;2022-12-20T10:50:54;8.57;;;5.80;;
7045;SDS011;3564;53.326;10.356;2022-12-20T10:53:22;8.53;;;5.70;;
7045;SDS011;3564;53.326;10.356;2022-12-20T10:55:50;7.57;;;5.60;;
7045;SDS011;3564;53.326;10.356;2022-12-20T10:58:30;7.67;;;5.43;;
7045;SDS011;3564;53.326;10.356;2022-12-20T11:01:10;7.13;;;5.30;;
7045;SDS011;3564;53.326;10.356;2022-12-20T11:03:48;7.30;;;5.67;;
7045;SDS011;3564;53.326;10.356;2022-12-20T11:06:19;5.97;;;5.33;;
7045;SDS011;3564;53.326;10.356;2022-12-20T11:08:46;8.83;;;5.50;;
7045;SDS011;3564;53.326;10.356;2022-12-20T11:11:14;8.53;;;5.10;;
7045;SDS011;3564;53.326;10.356;2022-12-20T11:13:44;6.33;;;4.93;;
7045;SDS011;3564;53.326;10.356;2022-12-20T11:16:24;9.57;;;5.50;;
7045;SDS011;3564;53.326;10.356;2022-12-20T11:24:41;5.87;;;4.67;;
7045;SDS011;3564;53.326;10.356;2022-12-20T11:27:35;8.20;;;4.80;;
7045;SDS011;3564;53.326;10.356;2022-12-20T11:30:20;6.50;;;4.90;;
7045;SDS011;3564;53.326;10.356;2022-12-20T11:36:00;10.63;;;5.00;;
7045;SDS011;3564;53.326;10.356;2022-12-20T11:42:13;7.13;;;5.10;;
7045;SDS011;3564;53.326;10.356;2022-12-20T11:56:08;6.23;;;4.70;;
7045;SDS011;3564;53.326;10.356;2022-12-20T12:01:19;7.90;;;4.80;;
7045;SDS011;3564;53.326;10.356;2022-12-20T12:03:56;6.83;;;5.27;;
7045;SDS011;3564;53.326;10.356;2022-12-20T12:06:41;5.63;;;4.57;;
7045;SDS011;3564;53.326;10.356;2022-12-20T12:09:15;7.13;;;5.00;;
7045;SDS011;3564;53.326;10.356;2022-12-20T12:22:48;6.20;;;4.53;;
7045;SDS011;3564;53.326;10.356;2022-12-20T12:25:18;5.93;;;4.33;;
7045;SDS011;3564;53.326;10.356;2022-12-20T12:27:44;6.33;;;4.30;;
7045;SDS011;3564;53.326;10.356;2022-12-20T12:30:11;6.13;;;4.40;;
7045;SDS011;3564;53.326;10.356;2022-12-20T12:35:10;6.60;;;4.30;;
7045;SDS011;3564;53.326;10.356;2022-12-20T12:38:03;5.73;;;4.30;;
7045;SDS011;3564;53.326;10.356;2022-12-20T12:43:50;5.33;;;4.23;;
7045;SDS011;3564;53.326;10.356;2022-12-20T12:46:23;5.93;;;4.33;;
7045;SDS011;3564;53.326;10.356;2022-12-20T12:49:16;5.80;;;4.63;;
7045;SDS011;3564;53.326;10.356;2022-12-20T12:51:49;6.27;;;4.57;;
7045;SDS011;3564;53.326;10.356;2022-12-20T12:54:27;6.53;;;4.13;;
7045;SDS011;3564;53.326;10.356;2022-12-20T13:17:55;6.30;;;3.90;;
7045;SDS011;3564;53.326;10.356;2022-12-20T13:20:23;4.27;;;3.57;;
7045;SDS011;3564;53.326;10.356;2022-12-20T13:25:38;4.73;;;3.53;;
7045;SDS011;3564;53.326;10.356;2022-12-20T13:28:54;8.13;;;4.00;;
7045;SDS011;3564;53.326;10.356;2022-12-20T13:41:19;4.83;;;3.70;;
7045;SDS011;3564;53.326;10.356;2022-12-20T13:43:46;4.90;;;3.73;;
7045;SDS011;3564;53.326;10.356;2022-12-20T13:46:17;5.97;;;3.80;;
7045;SDS011;3564;53.326;10.356;2022-12-20T13:49:54;3.97;;;3.57;;
7045;SDS011;3564;53.326;10.356;2022-12-20T13:54:39;7.23;;;3.60;;
7045;SDS011;3564;53.326;10.356;2022-12-20T13:57:06;4.73;;;3.70;;
7045;SDS011;3564;53.326;10.356;2022-12-20T13:59:33;4.87;;;3.73;;
7045;SDS011;3564;53.326;10.356;2022-12-20T14:02:00;6.00;;;3.87;;
7045;SDS011;3564;53.326;10.356;2022-12-20T14:04:38;4.83;;;3.83;;
7045;SDS011;3564;53.326;10.356;2022-12-20T14:07:07;6.20;;;3.70;;
7045;SDS011;3564;53.326;10.356;2022-12-20T14:09:37;4.10;;;3.60;;
7045;SDS011;3564;53.326;10.356;2022-12-20T14:12:04;6.87;;;3.63;;
7045;SDS011;3564;53.326;10.356;2022-12-20T14:14:37;6.00;;;3.87;;
7045;SDS011;3564;53.326;10.356;2022-12-20T14:22:50;6.33;;;3.80;;
7045;SDS011;3564;53.326;10.356;2022-12-20T14:25:23;5.13;;;3.93;;
7045;SDS011;3564;53.326;10.356;2022-12-20T14:27:54;4.07;;;3.37;;
7045;SDS011;3564;53.326;10.356;2022-12-20T14:30:26;5.73;;;3.50;;
7045;SDS011;3564;53.326;10.356;2022-12-20T14:33:18;5.50;;;3.47;;
7045;SDS011;3564;53.326;10.356;2022-12-20T14:35:49;4.23;;;3.60;;
7045;SDS011;3564;53.326;10.356;2022-12-20T14:38:33;3.93;;;3.40;;
7045;SDS011;3564;53.326;10.356;2022-12-20T14:40:59;6.97;;;3.70;;
7045;SDS011;3564;53.326;10.356;2022-12-20T14:43:26;6.53;;;3.73;;
7045;SDS011;3564;53.326;10.356;2022-12-20T14:46:05;4.03;;;3.37;;
7045;SDS011;3564;53.326;10.356;2022-12-20T14:48:42;5.57;;;3.43;;
7045;SDS011;3564;53.326;10.356;2022-12-20T14:51:09;5.23;;;3.80;;
7045;SDS011;3564;53.326;10.356;2022-12-20T14:53:36;5.33;;;3.70;;
7045;SDS011;3564;53.326;10.356;2022-12-20T14:56:04;3.97;;;3.50;;
7045;SDS011;3564;53.326;10.356;2022-12-20T14:58:31;5.43;;;4.17;;
7045;SDS011;3564;53.326;10.356;2022-12-20T15:00:59;6.60;;;3.83;;
7045;SDS011;3564;53.326;10.356;2022-12-20T15:03:51;6.93;;;3.57;;
7045;SDS011;3564;53.326;10.356;2022-12-20T15:06:40;5.43;;;3.87;;
7045;SDS011;3564;53.326;10.356;2022-12-20T15:09:09;6.27;;;3.90;;
7045;SDS011;3564;53.326;10.356;2022-12-20T15:11:35;4.50;;;3.43;;
7045;SDS011;3564;53.326;10.356;2022-12-20T15:14:02;4.27;;;3.57;;
7045;SDS011;3564;53.326;10.356;2022-12-20T15:16:47;7.30;;;3.70;;
7045;SDS011;3564;53.326;10.356;2022-12-20T15:19:13;5.43;;;3.60;;
7045;SDS011;3564;53.326;10.356;2022-12-20T15:21:39;5.00;;;3.43;;
7045;SDS011;3564;53.326;10.356;2022-12-20T15:26:44;4.63;;;3.60;;
7045;SDS011;3564;53.326;10.356;2022-12-20T15:29:16;4.53;;;3.77;;
7045;SDS011;3564;53.326;10.356;2022-12-20T15:31:47;6.47;;;3.87;;
7045;SDS011;3564;53.326;10.356;2022-12-20T15:36:59;5.60;;;3.80;;
7045;SDS011;3564;53.326;10.356;2022-12-20T15:39:26;5.50;;;3.87;;
7045;SDS011;3564;53.326;10.356;2022-12-20T15:41:53;6.33;;;3.77;;
7045;SDS011;3564;53.326;10.356;2022-12-20T15:44:23;5.57;;;4.10;;
7045;SDS011;3564;53.326;10.356;2022-12-20T15:46:51;6.23;;;3.83;;
7045;SDS011;3564;53.326;10.356;2022-12-20T15:49:19;7.13;;;3.97;;
7045;SDS011;3564;53.326;10.356;2022-12-20T15:51:46;6.63;;;4.53;;
7045;SDS011;3564;53.326;10.356;2022-12-20T15:56:52;5.33;;;4.07;;
7045;SDS011;3564;53.326;10.356;2022-12-20T15:59:18;6.87;;;3.90;;
7045;SDS011;3564;53.326;10.356;2022-12-20T16:01:44;4.43;;;3.97;;
7045;SDS011;3564;53.326;10.356;2022-12-20T16:04:12;5.73;;;3.87;;
7045;SDS011;3564;53.326;10.356;2022-12-20T16:06:40;8.10;;;4.13;;
7045;SDS011;3564;53.326;10.356;2022-12-20T16:09:06;6.43;;;4.57;;
7045;SDS011;3564;53.326;10.356;2022-12-20T16:11:31;5.70;;;4.30;;
7045;SDS011;3564;53.326;10.356;2022-12-20T16:13:57;4.03;;;3.60;;
7045;SDS011;3564;53.326;10.356;2022-12-20T16:16:25;6.17;;;4.30;;
7045;SDS011;3564;53.326;10.356;2022-12-20T16:18:53;5.00;;;3.73;;
7045;SDS011;3564;53.326;10.356;2022-12-20T16:21:20;10.00;;;6.23;;
7045;SDS011;3564;53.326;10.356;2022-12-20T16:23:49;9.37;;;5.43;;
7045;SDS011;3564;53.326;10.356;2022-12-20T16:26:16;7.03;;;4.93;;
7045;SDS011;3564;53.326;10.356;2022-12-20T16:28:44;6.30;;;4.20;;
7045;SDS011;3564;53.326;10.356;2022-12-20T16:31:15;5.83;;;4.17;;
7045;SDS011;3564;53.326;10.356;2022-12-20T16:33:48;5.00;;;4.10;;
7045;SDS011;3564;53.326;10.356;2022-12-20T16:36:14;5.40;;;4.37;;
7045;SDS011;3564;53.326;10.356;2022-12-20T16:38:40;6.27;;;4.77;;
7045;SDS011;3564;53.326;10.356;2022-12-20T16:41:15;6.27;;;3.87;;
7045;SDS011;3564;53.326;10.356;2022-12-20T16:43:43;7.33;;;4.43;;
7045;SDS011;3564;53.326;10.356;2022-12-20T16:46:17;7.73;;;4.63;;
7045;SDS011;3564;53.326;10.356;2022-12-20T16:48:44;6.77;;;3.90;;
7045;SDS011;3564;53.326;10.356;2022-12-20T16:51:21;5.50;;;3.90;;
7045;SDS011;3564;53.326;10.356;2022-12-20T16:53:53;5.70;;;4.23;;
7045;SDS011;3564;53.326;10.356;2022-12-20T16:56:24;6.40;;;4.40;;
7045;SDS011;3564;53.326;10.356;2022-12-20T16:58:50;4.67;;;3.93;;
7045;SDS011;3564;53.326;10.356;2022-12-20T17:01:19;7.57;;;4.33;;
7045;SDS011;3564;53.326;10.356;2022-12-20T17:03:49;4.23;;;3.80;;
7045;SDS011;3564;53.326;10.356;2022-12-20T17:06:17;6.50;;;3.73;;
7045;SDS011;3564;53.326;10.356;2022-12-20T17:08:43;4.53;;;3.63;;
7045;SDS011;3564;53.326;10.356;2022-12-20T17:11:11;6.23;;;4.60;;
7045;SDS011;3564;53.326;10.356;2022-12-20T17:13:45;10.13;;;6.53;;
7045;SDS011;3564;53.326;10.356;2022-12-20T17:16:13;6.93;;;4.30;;
7045;SDS011;3564;53.326;10.356;2022-12-20T17:18:40;6.23;;;4.23;;
7045;SDS011;3564;53.326;10.356;2022-12-20T17:21:28;5.13;;;4.13;;